createdAt,value
2023-04-24T00:01:21.600Z,30.80
2023-04-24T00:03:49.358Z,32.92
2023-04-24T00:06:18.930Z,39.90
2023-04-24T00:11:38.739Z,31.80
2023-04-24T00:14:06.280Z,34.75
2023-04-24T00:16:33.840Z,27.90
2023-04-24T00:19:01.883Z,26.92
2023-04-24T00:21:30.992Z,24.35
2023-04-24T00:23:58.440Z,31.75
2023-04-24T00:26:26.442Z,39.40
2023-04-24T00:28:53.959Z,27.20
2023-04-24T00:31:21.561Z,31.92
2023-04-24T00:33:49.096Z,30.15
2023-04-24T00:36:16.636Z,25.67
2023-04-24T00:38:45.922Z,27.55
2023-04-24T00:41:13.868Z,33.88
2023-04-24T00:43:41.566Z,34.70
2023-04-24T00:46:09.344Z,36.70
2023-04-24T00:48:37.096Z,32.35
2023-04-24T00:51:04.971Z,33.15
2023-04-24T00:53:32.620Z,32.70
2023-04-24T00:56:01.918Z,27.00
2023-04-24T00:58:29.501Z,20.63
2023-04-24T01:00:58.589Z,32.42
2023-04-24T01:03:27.403Z,27.63
2023-04-24T01:05:56.517Z,30.23
2023-04-24T01:08:25.645Z,27.02
2023-04-24T01:10:53.881Z,24.73
2023-04-24T01:13:22.996Z,23.60
2023-04-24T01:15:50.869Z,21.05
2023-04-24T01:18:43.672Z,24.40
2023-04-24T01:21:14.325Z,28.23
2023-04-24T01:23:43.166Z,31.80
2023-04-24T01:26:10.780Z,26.33
2023-04-24T01:28:38.804Z,37.38
2023-04-24T01:31:06.414Z,22.77
2023-04-24T01:36:27.176Z,30.55
2023-04-24T01:38:56.238Z,33.47
2023-04-24T01:41:23.796Z,33.40
2023-04-24T01:43:51.650Z,31.60
2023-04-24T01:46:19.257Z,21.13
2023-04-24T01:48:47.065Z,23.30
2023-04-24T01:51:14.959Z,29.13
2023-04-24T01:53:42.436Z,25.15
2023-04-24T01:56:11.252Z,21.02
2023-04-24T02:07:18.712Z,29.42
2023-04-24T02:09:46.247Z,34.33
2023-04-24T02:12:39.337Z,23.75
2023-04-24T02:15:09.114Z,22.35
2023-04-24T02:17:37.340Z,22.90
2023-04-24T02:20:05.692Z,29.35
2023-04-24T02:22:33.184Z,27.60
2023-04-24T02:30:45.252Z,22.80
2023-04-24T02:33:13.090Z,25.73
2023-04-24T02:35:40.734Z,24.98
2023-04-24T02:38:08.235Z,28.00
2023-04-24T02:40:35.628Z,32.65
2023-04-24T02:45:55.776Z,24.55
2023-04-24T02:48:23.397Z,22.25
2023-04-24T02:50:51.496Z,32.45
2023-04-24T02:53:19.097Z,28.15
2023-04-24T02:55:47.042Z,32.42
2023-04-24T02:58:15.966Z,27.67
2023-04-24T03:00:44.443Z,27.25
2023-04-24T03:03:13.505Z,46.05
2023-04-24T03:05:41.551Z,27.50
2023-04-24T03:11:00.647Z,37.08
2023-04-24T03:13:28.348Z,28.48
2023-04-24T03:15:56.030Z,28.67
2023-04-24T03:18:24.971Z,28.27
2023-04-24T03:20:52.456Z,49.55
2023-04-24T03:23:19.973Z,31.70
2023-04-24T03:25:49.417Z,35.90
2023-04-24T03:28:17.061Z,31.55
2023-04-24T03:30:44.607Z,32.78
2023-04-24T03:33:12.192Z,31.73
2023-04-24T03:35:42.183Z,30.63
2023-04-24T03:38:09.784Z,32.55
2023-04-24T03:40:40.685Z,44.10
2023-04-24T03:43:08.160Z,28.70
2023-04-24T03:45:35.645Z,29.48
2023-04-24T03:48:03.334Z,32.35
2023-04-24T03:50:31.165Z,27.17
2023-04-24T03:53:00.022Z,30.55
2023-04-24T03:58:20.246Z,22.77
2023-04-24T04:00:49.055Z,28.58
2023-04-24T04:06:14.154Z,21.20
2023-04-24T04:08:43.147Z,21.25
2023-04-24T04:11:10.590Z,17.05
2023-04-24T04:16:31.190Z,23.30
2023-04-24T04:19:01.181Z,33.85
2023-04-24T04:21:28.995Z,21.55
2023-04-24T04:23:58.056Z,22.88
2023-04-24T04:26:26.643Z,25.17
2023-04-24T04:28:54.246Z,20.73
2023-04-24T04:31:22.089Z,22.70
2023-04-24T04:33:49.638Z,28.67
2023-04-24T04:36:18.274Z,22.60
2023-04-24T04:38:45.849Z,20.45
2023-04-24T04:41:14.695Z,24.58
2023-04-24T04:43:43.710Z,33.35
2023-04-24T04:46:12.311Z,24.52
2023-04-24T04:48:40.623Z,20.48
2023-04-24T04:51:08.188Z,21.95
2023-04-24T04:53:36.015Z,29.05
2023-04-24T04:56:03.525Z,19.27
2023-04-24T04:58:32.375Z,29.02
2023-04-24T05:01:00.250Z,27.00
2023-04-24T05:03:28.447Z,25.63
2023-04-24T05:05:56.011Z,16.88
2023-04-24T05:08:27.590Z,15.50
2023-04-24T05:10:55.888Z,23.05
2023-04-24T05:13:35.734Z,13.27
2023-04-24T05:18:59.884Z,16.85
2023-04-24T05:21:27.831Z,27.00
2023-04-24T05:23:55.298Z,18.83
2023-04-24T05:26:24.106Z,18.15
2023-04-24T05:28:52.358Z,15.55
2023-04-24T05:31:26.160Z,14.45
2023-04-24T05:33:57.242Z,13.68
2023-04-24T05:36:24.885Z,15.02
2023-04-24T05:38:52.760Z,14.32
2023-04-24T05:41:20.610Z,17.25
2023-04-24T05:43:52.325Z,14.90
2023-04-24T05:52:10.036Z,12.38
2023-04-24T05:54:38.141Z,12.95
2023-04-24T05:57:11.596Z,12.55
2023-04-24T06:02:34.413Z,13.55
2023-04-24T06:05:02.050Z,16.23
2023-04-24T06:07:29.789Z,9.48
2023-04-24T06:09:57.930Z,10.75
2023-04-24T06:12:25.480Z,8.70
2023-04-24T06:14:53.067Z,8.30
2023-04-24T06:17:20.802Z,9.27
2023-04-24T06:19:49.724Z,13.35
2023-04-24T06:26:01.855Z,12.45
2023-04-24T06:32:19.665Z,13.63
2023-04-24T06:34:47.239Z,10.50
2023-04-24T06:37:17.175Z,13.70
2023-04-24T06:39:45.212Z,13.55
2023-04-24T06:42:36.596Z,10.75
2023-04-24T06:45:28.572Z,8.13
2023-04-24T06:48:22.881Z,15.32
2023-04-24T06:51:14.547Z,11.43
2023-04-24T06:53:57.097Z,8.98
2023-04-24T06:59:22.433Z,11.30
2023-04-24T07:01:50.066Z,7.78
2023-04-24T07:04:17.799Z,10.00
2023-04-24T07:06:49.783Z,11.15
2023-04-24T07:09:19.589Z,8.63
2023-04-24T07:11:47.334Z,8.95
2023-04-24T07:14:15.387Z,10.50
2023-04-24T07:16:43.669Z,7.35
2023-04-24T07:19:11.205Z,10.35
2023-04-24T07:21:38.672Z,7.47
2023-04-24T07:24:33.149Z,8.23
2023-04-24T07:27:37.706Z,8.35
2023-04-24T07:30:08.016Z,13.63
2023-04-24T07:32:36.063Z,9.57
2023-04-24T07:35:04.835Z,7.40
2023-04-24T07:37:35.177Z,6.95
2023-04-24T07:40:03.258Z,6.20
2023-04-24T07:45:27.252Z,4.80
2023-04-24T07:47:54.857Z,8.32
2023-04-24T07:50:22.562Z,6.82
2023-04-24T07:52:50.118Z,6.45
2023-04-24T07:55:17.690Z,9.05
2023-04-24T07:57:45.358Z,4.45
2023-04-24T08:00:13.330Z,3.95
2023-04-24T08:02:42.442Z,6.22
2023-04-24T08:05:10.718Z,6.18
2023-04-24T08:07:38.864Z,6.28
2023-04-24T08:10:07.118Z,6.75
2023-04-24T08:12:34.669Z,2.90
2023-04-24T08:15:02.199Z,4.28
2023-04-24T08:17:29.724Z,3.38
2023-04-24T08:20:02.500Z,3.00
2023-04-24T08:22:30.506Z,3.17
2023-04-24T08:25:01.879Z,4.78
2023-04-24T08:27:29.490Z,3.95
2023-04-24T08:29:57.175Z,4.45
2023-04-24T08:32:24.757Z,8.82
2023-04-24T08:34:53.701Z,3.17
2023-04-24T08:37:22.968Z,2.42
2023-04-24T08:39:51.267Z,2.67
2023-04-24T08:42:19.130Z,3.47
2023-04-24T08:44:46.915Z,3.17
2023-04-24T08:47:16.226Z,2.63
2023-04-24T08:49:44.940Z,4.82
2023-04-24T08:52:14.170Z,1.58
2023-04-24T08:54:44.640Z,3.85
2023-04-24T08:57:12.635Z,2.15
2023-04-24T08:59:40.235Z,3.08
2023-04-24T09:02:08.624Z,8.43
2023-04-24T09:04:40.168Z,8.02
2023-04-24T09:07:08.557Z,2.88
2023-04-24T09:09:36.757Z,3.17
2023-04-24T09:12:07.154Z,4.50
2023-04-24T09:14:37.220Z,3.35
2023-04-24T09:17:05.072Z,3.22
2023-04-24T09:19:32.749Z,3.88
2023-04-24T09:22:00.275Z,2.40
2023-04-24T09:24:27.763Z,5.93
2023-04-24T09:26:59.315Z,2.17
2023-04-24T09:29:29.263Z,4.40
2023-04-24T09:31:57.289Z,4.30
2023-04-24T09:34:25.513Z,5.88
2023-04-24T09:36:53.340Z,6.35
2023-04-24T09:39:21.757Z,3.22
2023-04-24T09:41:50.715Z,4.85
2023-04-24T09:44:18.784Z,2.50
2023-04-24T09:46:51.661Z,5.38
2023-04-24T09:49:25.847Z,7.00
2023-04-24T09:51:53.637Z,7.07
2023-04-24T09:54:22.230Z,5.93
2023-04-24T09:56:50.828Z,5.97
2023-04-24T09:59:19.329Z,4.80
2023-04-24T10:01:47.402Z,4.38
2023-04-24T10:10:09.702Z,3.83
2023-04-24T10:12:37.505Z,2.60
2023-04-24T10:15:06.685Z,4.22
2023-04-24T10:17:34.613Z,2.45
2023-04-24T10:20:03.998Z,2.75
2023-04-24T10:22:31.921Z,3.60
2023-04-24T10:25:00.377Z,7.40
2023-04-24T10:27:28.782Z,2.30
2023-04-24T10:29:57.191Z,4.60
2023-04-24T10:32:25.064Z,3.25
2023-04-24T10:34:52.751Z,5.70
2023-04-24T10:37:21.724Z,1.85
2023-04-24T10:39:49.988Z,3.33
2023-04-24T10:42:17.512Z,2.45
2023-04-24T10:44:45.099Z,4.68
2023-04-24T10:47:15.069Z,6.18
2023-04-24T10:49:42.638Z,6.10
2023-04-24T10:52:10.936Z,3.83
2023-04-24T10:54:44.578Z,3.08
2023-04-24T10:57:31.885Z,2.75
2023-04-24T11:00:15.451Z,2.75
2023-04-24T11:02:49.391Z,6.67
2023-04-24T11:05:18.412Z,3.47
2023-04-24T11:08:07.450Z,6.60
2023-04-24T11:10:39.965Z,4.13
2023-04-24T11:13:07.566Z,5.65
2023-04-24T11:15:35.118Z,5.85
2023-04-24T11:18:02.784Z,2.88
2023-04-24T11:20:30.861Z,4.57
2023-04-24T11:23:08.184Z,3.03
2023-04-24T11:25:37.548Z,6.78
2023-04-24T11:28:05.768Z,4.10
2023-04-24T11:30:34.608Z,6.45
2023-04-24T11:33:04.338Z,3.35
2023-04-24T11:35:31.891Z,2.65
2023-04-24T11:40:30.601Z,5.38
2023-04-24T11:43:02.307Z,2.53
2023-04-24T11:45:30.406Z,4.45
2023-04-24T11:47:58.062Z,7.60
2023-04-24T11:50:28.851Z,4.07
2023-04-24T11:52:57.606Z,4.35
2023-04-24T11:55:27.025Z,8.27
2023-04-24T11:57:57.383Z,3.05
2023-04-24T12:00:27.580Z,4.00
2023-04-24T12:03:06.812Z,5.43
2023-04-24T12:05:35.858Z,3.22
2023-04-24T12:08:03.641Z,3.85
2023-04-24T12:13:26.259Z,5.07
2023-04-24T12:15:55.294Z,4.85
2023-04-24T12:18:24.305Z,5.38
2023-04-24T12:26:40.152Z,6.50
2023-04-24T12:29:09.150Z,4.32
2023-04-24T12:31:38.280Z,3.63
2023-04-24T12:34:06.192Z,7.18
2023-04-24T12:36:33.774Z,5.57
2023-04-24T12:39:02.082Z,5.82
2023-04-24T12:41:54.416Z,6.57
2023-04-24T12:44:22.374Z,4.30
2023-04-24T12:46:51.314Z,4.78
2023-04-24T12:49:18.954Z,6.97
2023-04-24T12:51:46.451Z,8.00
2023-04-24T12:54:42.484Z,9.82
2023-04-24T12:57:34.135Z,3.95
2023-04-24T13:02:58.731Z,5.68
2023-04-24T13:05:26.417Z,8.38
2023-04-24T13:07:53.892Z,5.15
2023-04-24T13:10:21.782Z,3.65
2023-04-24T13:12:49.531Z,5.25
2023-04-24T13:15:17.098Z,3.50
2023-04-24T13:20:37.745Z,3.63
2023-04-24T13:23:05.441Z,5.00
2023-04-24T13:25:38.587Z,2.63
2023-04-24T13:28:06.102Z,8.35
2023-04-24T13:30:33.763Z,3.40
2023-04-24T13:33:05.805Z,12.65
2023-04-24T13:35:58.277Z,4.88
2023-04-24T13:44:09.813Z,5.45
2023-04-24T13:46:40.161Z,4.70
2023-04-24T13:49:07.708Z,7.60
2023-04-24T13:51:59.517Z,5.57
2023-04-24T13:54:28.528Z,3.55
2023-04-24T13:56:58.250Z,3.53
2023-04-24T14:02:17.760Z,8.60
2023-04-24T14:04:45.729Z,3.80
2023-04-24T14:07:13.369Z,5.45
2023-04-24T14:09:42.446Z,5.30
2023-04-24T14:12:10.166Z,7.20
2023-04-24T14:14:40.312Z,3.30
2023-04-24T14:17:07.938Z,12.80
2023-04-24T14:19:36.675Z,4.65
2023-04-24T14:22:07.025Z,10.00
2023-04-24T14:24:35.618Z,5.68
2023-04-24T14:27:04.811Z,2.88
2023-04-24T14:29:34.907Z,4.82
2023-04-24T14:32:05.468Z,9.13
2023-04-24T14:34:33.081Z,3.95
2023-04-24T14:37:00.921Z,3.92
2023-04-24T14:39:28.643Z,7.65
2023-04-24T14:41:57.785Z,6.70
2023-04-24T14:44:27.103Z,10.52
2023-04-24T14:47:19.334Z,4.18
2023-04-24T14:50:11.738Z,6.15
2023-04-24T14:53:06.540Z,7.13
2023-04-24T14:55:37.227Z,6.07
2023-04-24T14:58:07.314Z,8.27
2023-04-24T15:00:37.004Z,10.50
2023-04-24T15:03:04.896Z,5.18
2023-04-24T15:05:32.735Z,6.18
2023-04-24T15:08:00.612Z,4.47
2023-04-24T15:10:28.557Z,9.68
2023-04-24T15:15:49.626Z,9.95
2023-04-24T15:18:17.117Z,7.03
2023-04-24T15:20:47.873Z,9.98
2023-04-24T15:23:17.776Z,5.07
2023-04-24T15:25:48.140Z,9.93
2023-04-24T15:28:17.062Z,9.93
2023-04-24T15:30:44.846Z,6.22
2023-04-24T15:33:14.055Z,6.50
2023-04-24T15:35:42.338Z,6.50
2023-04-24T15:38:10.285Z,8.65
2023-04-24T15:40:47.030Z,6.35
2023-04-24T15:46:07.977Z,4.07
2023-04-24T15:48:37.227Z,7.10
2023-04-24T15:51:04.832Z,5.93
2023-04-24T15:59:19.066Z,7.25
2023-04-24T16:01:47.033Z,7.55
2023-04-24T16:04:16.452Z,13.95
2023-04-24T16:06:44.265Z,6.47
2023-04-24T16:09:13.438Z,8.85
2023-04-24T16:11:41.489Z,6.45
2023-04-24T16:14:11.857Z,6.65
2023-04-24T16:16:39.471Z,6.20
2023-04-24T16:19:18.687Z,8.38
2023-04-24T16:21:50.675Z,3.72
2023-04-24T16:24:20.960Z,4.32
2023-04-24T16:27:05.933Z,5.10
2023-04-24T16:29:33.792Z,4.50
2023-04-24T16:34:59.009Z,6.90
2023-04-24T16:37:29.693Z,6.05
2023-04-24T16:40:04.343Z,4.63
2023-04-24T16:42:31.846Z,6.70
2023-04-24T16:45:05.916Z,9.75
2023-04-24T16:50:24.700Z,5.95
2023-04-24T16:52:58.460Z,5.55
2023-04-24T16:55:32.060Z,9.38
2023-04-24T16:58:01.812Z,10.75
2023-04-24T17:00:30.925Z,9.45
2023-04-24T17:03:23.993Z,6.60
2023-04-24T17:05:56.040Z,7.38
2023-04-24T17:08:25.458Z,8.70
2023-04-24T17:10:56.822Z,4.93
2023-04-24T17:31:04.224Z,9.68
2023-04-24T17:33:32.318Z,5.05
2023-04-24T17:36:01.674Z,6.25
2023-04-24T17:38:29.700Z,57.90
2023-04-24T17:41:00.171Z,8.18
2023-04-24T17:49:16.794Z,8.93
2023-04-24T17:51:44.340Z,4.90
2023-04-24T17:54:12.245Z,9.00
2023-04-24T17:59:59.362Z,5.68
2023-04-24T18:02:27.229Z,10.43
2023-04-24T18:04:55.534Z,5.95
2023-04-24T18:07:23.458Z,10.40
2023-04-24T18:09:51.594Z,6.20
2023-04-24T18:12:22.651Z,9.93
2023-04-24T18:14:57.312Z,5.10
2023-04-24T18:17:46.446Z,10.85
2023-04-24T18:26:25.630Z,6.63
2023-04-24T18:29:07.529Z,8.85
2023-04-24T18:31:35.453Z,8.55
2023-04-24T18:34:04.423Z,9.48
2023-04-24T18:36:32.702Z,7.25
2023-04-24T18:39:01.780Z,11.93
2023-04-24T18:41:32.152Z,7.72
2023-04-24T18:44:00.104Z,7.43
2023-04-24T18:46:31.265Z,5.93
2023-04-24T18:49:00.973Z,7.13
2023-04-24T18:51:40.388Z,6.38
2023-04-24T18:54:16.619Z,7.65
2023-04-24T18:56:46.562Z,5.93
2023-04-24T18:59:16.266Z,6.90
2023-04-24T19:01:47.356Z,8.68
2023-04-24T19:04:38.227Z,14.30
2023-04-24T19:07:12.192Z,7.57
2023-04-24T19:09:42.173Z,10.80
2023-04-24T19:12:11.284Z,10.10
2023-04-24T19:14:41.224Z,7.10
2023-04-24T19:20:05.222Z,14.25
2023-04-24T19:22:38.572Z,12.38
2023-04-24T19:25:06.905Z,15.03
2023-04-24T19:27:34.728Z,15.57
2023-04-24T19:30:02.323Z,15.02
2023-04-24T19:32:41.256Z,5.63
2023-04-24T19:35:09.190Z,12.32
2023-04-24T19:37:41.292Z,15.43
2023-04-24T19:40:09.446Z,10.18
2023-04-24T19:42:43.757Z,13.55
2023-04-24T19:48:12.123Z,14.38
2023-04-24T19:50:44.457Z,11.10
2023-04-24T19:53:14.642Z,8.57
2023-04-24T19:55:42.135Z,6.32
2023-04-24T19:58:09.630Z,7.85
2023-04-24T20:00:41.023Z,8.35
2023-04-24T20:03:21.613Z,9.30
2023-04-24T20:05:59.215Z,11.43
2023-04-24T20:08:30.500Z,9.93
2023-04-24T20:10:58.643Z,14.60
2023-04-24T20:13:28.757Z,15.05
2023-04-24T20:15:57.904Z,12.55
2023-04-24T20:18:25.550Z,17.25
2023-04-24T20:20:57.144Z,11.40
2023-04-24T20:23:24.732Z,11.80
2023-04-24T20:25:58.068Z,7.95
2023-04-24T20:28:32.077Z,16.48
2023-04-24T20:31:00.161Z,9.45
2023-04-24T20:33:30.498Z,10.70
2023-04-24T20:35:57.962Z,11.93
2023-04-24T20:38:29.260Z,7.75
2023-04-24T20:40:58.604Z,13.07
2023-04-24T20:43:28.870Z,10.40
2023-04-24T20:45:58.097Z,9.75
2023-04-24T20:48:26.009Z,7.78
2023-04-24T20:50:54.488Z,11.45
2023-04-24T20:53:22.084Z,8.48
2023-04-24T20:55:51.034Z,13.32
2023-04-24T20:58:20.976Z,9.25
2023-04-24T21:00:52.270Z,13.48
2023-04-24T21:03:20.144Z,8.90
2023-04-24T21:05:47.833Z,13.77
2023-04-24T21:08:15.440Z,10.95
2023-04-24T21:10:43.215Z,10.30
2023-04-24T21:13:10.857Z,9.85
2023-04-24T21:15:39.981Z,9.02
2023-04-24T21:18:07.986Z,13.93
2023-04-24T21:20:35.582Z,7.35
2023-04-24T21:23:06.416Z,8.73
2023-04-24T21:25:35.010Z,8.80
2023-04-24T21:28:02.551Z,14.13
2023-04-24T21:30:30.580Z,7.75
2023-04-24T21:32:59.968Z,15.45
2023-04-24T21:35:27.546Z,7.93
2023-04-24T21:37:55.103Z,9.10
2023-04-24T21:40:22.616Z,7.20
2023-04-24T21:42:51.824Z,11.88
2023-04-24T21:45:20.204Z,8.38
2023-04-24T21:47:47.738Z,8.07
2023-04-24T21:50:21.808Z,6.72
2023-04-24T21:58:33.331Z,9.73
2023-04-24T22:01:00.997Z,11.35
2023-04-24T22:03:29.755Z,9.38
2023-04-24T22:05:58.963Z,10.48
2023-04-24T22:08:26.475Z,8.23
2023-04-24T22:10:54.657Z,9.00
2023-04-24T22:13:22.257Z,9.05
2023-04-24T22:15:51.660Z,11.07
2023-04-24T22:18:20.634Z,11.63
2023-04-24T22:20:48.758Z,12.15
2023-04-24T22:23:17.620Z,12.50
2023-04-24T22:25:45.282Z,12.23
2023-04-24T22:28:13.004Z,10.00
2023-04-24T22:30:40.541Z,16.27
2023-04-24T22:33:08.470Z,9.75
2023-04-24T22:35:37.485Z,10.13
2023-04-24T22:38:04.985Z,8.68
2023-04-24T22:40:35.549Z,5.95
2023-04-24T22:43:03.727Z,9.32
2023-04-24T22:45:31.307Z,8.18
2023-04-24T22:47:58.899Z,16.90
2023-04-24T22:50:35.540Z,12.15
2023-04-24T22:53:03.313Z,9.95
2023-04-24T22:55:31.458Z,9.38
2023-04-24T23:00:52.646Z,10.85
2023-04-24T23:03:20.447Z,8.43
2023-04-24T23:05:48.107Z,11.38
2023-04-24T23:08:16.120Z,8.25
2023-04-24T23:10:43.655Z,7.35
2023-04-24T23:13:12.511Z,10.32
2023-04-24T23:15:44.912Z,9.38
2023-04-24T23:18:12.640Z,11.55
2023-04-24T23:20:40.146Z,13.38
2023-04-24T23:23:08.037Z,17.80
2023-04-24T23:25:35.585Z,14.73
2023-04-24T23:28:03.121Z,8.40
2023-04-24T23:33:23.874Z,7.10
2023-04-24T23:35:55.491Z,11.40
2023-04-24T23:38:23.017Z,10.55
2023-04-24T23:40:52.183Z,14.27
2023-04-24T23:43:22.943Z,8.23
2023-04-24T23:45:52.596Z,15.18
2023-04-24T23:48:20.195Z,15.02
2023-04-24T23:50:47.804Z,10.13
2023-04-24T23:56:08.221Z,10.63
2023-04-24T23:59:01.025Z,13.40
